Time;durP1;ratioP1;P1;durP2;ratioP2;P2;SDS_P1;SDS_P2;PMS_P1;PMS_P2;Temp;Humidity;BMP_temperature;BMP_pressure;BME280_temperature;BME280_humidity;BME280_pressure;Samples;Min_cycle;Max_cycle;Signal;HPM_P1;HPM_P2
2023/11/15 00:02:07;;;;;;;4.13;0.30;;;;;;;;;;5070862;28;20033;-57
2023/11/15 00:04:34;;;;;;;0.77;0.40;;;;;;;;;;5071546;28;20494;-57
2023/11/15 00:07:01;;;;;;;7.23;0.23;;;;;;;;;;5066815;28;20035;-57
2023/11/15 00:09:29;;;;;;;6.90;0.57;;;;;;;;;;5065967;28;20468;-57
2023/11/15 00:11:56;;;;;;;0.20;0.10;;;;;;;;;;5065703;28;20033;-58
2023/11/15 00:14:23;;;;;;;0.13;0.10;;;;;;;;;;5066023;28;20025;-57
2023/11/15 00:16:49;;;;;;;2.10;1.07;;;;;;;;;;5070056;28;20020;-57
2023/11/15 00:19:17;;;;;;;4.40;0.90;;;;;;;;;;5070798;28;20036;-57
2023/11/15 00:21:44;;;;;;;1.07;0.50;;;;;;;;;;5074218;28;20021;-57
2023/11/15 00:24:11;;;;;;;1.37;0.60;;;;;;;;;;5074598;28;20021;-57
2023/11/15 00:26:38;;;;;;;0.53;0.20;;;;;;;;;;5074367;28;20046;-57
2023/11/15 00:29:04;;;;;;;0.70;0.47;;;;;;;;;;5071030;28;20099;-57
2023/11/15 00:31:32;;;;;;;1.07;0.40;;;;;;;;;;5069563;28;20372;-58
2023/11/15 00:33:58;;;;;;;5.30;0.30;;;;;;;;;;5068943;28;20494;-57
2023/11/15 00:36:25;;;;;;;0.93;0.20;;;;;;;;;;5069516;28;20029;-57
2023/11/15 00:38:51;;;;;;;1.63;0.60;;;;;;;;;;5071860;28;20039;-58
2023/11/15 00:41:18;;;;;;;0.47;0.30;;;;;;;;;;5074339;28;20109;-57
2023/11/15 00:43:45;;;;;;;0.67;0.40;;;;;;;;;;5073827;28;20098;-57
2023/11/15 00:46:15;;;;;;;0.17;0.17;;;;;;;;;;5074606;28;20081;-57
2023/11/15 00:48:41;;;;;;;0.83;0.27;;;;;;;;;;5073975;28;20086;-58
2023/11/15 00:51:08;;;;;;;0.20;0.20;;;;;;;;;;5071626;28;20078;-58
2023/11/15 00:53:35;;;;;;;1.13;0.57;;;;;;;;;;5068885;28;20036;-57
2023/11/15 00:56:02;;;;;;;0.30;0.20;;;;;;;;;;5068612;28;20574;-57
2023/11/15 00:58:38;;;;;;;0.10;0.10;;;;;;;;;;5069203;28;20063;-57
2023/11/15 01:01:10;;;;;;;0.83;0.10;;;;;;;;;;5071042;28;20149;-57
2023/11/15 01:03:45;;;;;;;0.23;0.10;;;;;;;;;;5073524;28;20029;-57
2023/11/15 01:06:13;;;;;;;0.10;0.10;;;;;;;;;;5072508;28;20056;-58
2023/11/15 01:08:40;;;;;;;0.20;0.10;;;;;;;;;;5060347;28;20032;-57
2023/11/15 01:11:07;;;;;;;0.60;0.23;;;;;;;;;;5071323;28;20081;-58
2023/11/15 01:13:34;;;;;;;0.83;0.40;;;;;;;;;;5068852;28;20028;-57
2023/11/15 01:16:01;;;;;;;1.33;0.47;;;;;;;;;;5067440;28;20020;-57
2023/11/15 01:18:29;;;;;;;1.10;0.40;;;;;;;;;;5066888;28;20115;-57
2023/11/15 01:20:56;;;;;;;0.40;0.20;;;;;;;;;;5067246;28;20025;-57
2023/11/15 01:23:22;;;;;;;0.30;0.17;;;;;;;;;;5068553;28;20064;-57
2023/11/15 01:25:49;;;;;;;0.30;0.20;;;;;;;;;;5071930;28;20013;-57
2023/11/15 01:28:16;;;;;;;1.17;0.33;;;;;;;;;;5072736;28;20048;-57
2023/11/15 01:30:43;;;;;;;0.90;0.40;;;;;;;;;;5072612;28;20021;-57
2023/11/15 01:33:09;;;;;;;0.10;0.10;;;;;;;;;;5072336;28;20103;-57
2023/11/15 01:35:37;;;;;;;0.70;0.30;;;;;;;;;;5071028;28;20486;-58
2023/11/15 01:38:03;;;;;;;0.33;0.13;;;;;;;;;;5065793;28;20708;-58
2023/11/15 01:40:34;;;;;;;0.20;0.20;;;;;;;;;;5064735;28;20031;-57
2023/11/15 01:43:01;;;;;;;8.10;0.40;;;;;;;;;;5066709;28;20040;-57
2023/11/15 01:45:27;;;;;;;0.50;0.30;;;;;;;;;;5053058;28;20488;-56
2023/11/15 01:47:55;;;;;;;0.10;0.10;;;;;;;;;;5058685;28;20640;-57
2023/11/15 01:50:21;;;;;;;0.20;0.17;;;;;;;;;;5065518;28;20051;-57
2023/11/15 01:52:48;;;;;;;0.33;0.23;;;;;;;;;;5071127;28;20036;-57
2023/11/15 01:55:16;;;;;;;0.30;0.20;;;;;;;;;;5072807;28;20378;-57
2023/11/15 01:57:44;;;;;;;0.83;0.20;;;;;;;;;;5072123;28;20103;-58
2023/11/15 02:00:12;;;;;;;0.10;0.10;;;;;;;;;;5048527;28;20033;-57
2023/11/15 02:02:40;;;;;;;0.20;0.20;;;;;;;;;;5063196;28;20032;-58
2023/11/15 02:05:08;;;;;;;0.00;0.00;;;;;;;;;;5067630;28;20025;-57
2023/11/15 02:07:34;;;;;;;0.60;0.30;;;;;;;;;;5054595;28;20089;-57
2023/11/15 02:10:04;;;;;;;0.33;0.30;;;;;;;;;;5052960;28;20520;-57
2023/11/15 02:12:31;;;;;;;0.40;0.20;;;;;;;;;;5052284;28;20487;-57
2023/11/15 02:14:58;;;;;;;5.53;0.33;;;;;;;;;;5051148;28;20537;-57
2023/11/15 02:17:26;;;;;;;1.80;0.37;;;;;;;;;;5050922;28;20539;-57
2023/11/15 02:19:53;;;;;;;0.30;0.10;;;;;;;;;;5050794;28;20023;-57
2023/11/15 02:22:19;;;;;;;0.10;0.10;;;;;;;;;;5045626;28;20096;-57
2023/11/15 02:24:46;;;;;;;0.40;0.30;;;;;;;;;;5045978;28;20052;-56
2023/11/15 02:27:13;;;;;;;0.10;0.10;;;;;;;;;;5045768;28;20025;-57
2023/11/15 02:29:40;;;;;;;0.10;0.10;;;;;;;;;;5046021;28;20029;-57
2023/11/15 02:32:09;;;;;;;0.30;0.20;;;;;;;;;;5051709;28;20017;-56
2023/11/15 02:34:36;;;;;;;14.03;0.47;;;;;;;;;;5054111;28;20028;-57
2023/11/15 02:37:03;;;;;;;1.00;0.20;;;;;;;;;;5072448;28;20024;-57
2023/11/15 02:39:30;;;;;;;0.60;0.40;;;;;;;;;;5071861;28;20029;-57
2023/11/15 02:41:57;;;;;;;0.30;0.27;;;;;;;;;;5072206;28;20098;-56
2023/11/15 02:44:24;;;;;;;0.20;0.10;;;;;;;;;;5067067;28;20024;-57
2023/11/15 02:46:50;;;;;;;1.03;0.37;;;;;;;;;;5067120;28;20320;-57
2023/11/15 02:49:17;;;;;;;0.20;0.10;;;;;;;;;;5067202;28;20021;-57
2023/11/15 02:51:46;;;;;;;0.10;0.07;;;;;;;;;;5067233;28;20043;-57
2023/11/15 02:54:14;;;;;;;0.10;0.10;;;;;;;;;;5070674;28;20021;-57
2023/11/15 02:56:41;;;;;;;0.30;0.20;;;;;;;;;;5072095;28;20036;-57
2023/11/15 02:59:08;;;;;;;0.97;0.30;;;;;;;;;;5071889;28;20545;-57
2023/11/15 03:01:35;;;;;;;0.10;0.10;;;;;;;;;;5071836;28;20352;-56
2023/11/15 03:04:01;;;;;;;0.00;0.00;;;;;;;;;;5071871;28;20039;-57
2023/11/15 03:06:28;;;;;;;2.17;0.43;;;;;;;;;;5068029;28;20032;-57
2023/11/15 03:08:54;;;;;;;0.87;0.20;;;;;;;;;;5065455;28;20037;-57
2023/11/15 03:11:21;;;;;;;0.10;0.10;;;;;;;;;;5046763;28;20040;-57
2023/11/15 03:13:48;;;;;;;0.10;0.10;;;;;;;;;;5046699;28;20472;-57
2023/11/15 03:16:14;;;;;;;0.20;0.20;;;;;;;;;;5069490;28;20099;-57
2023/11/15 03:18:42;;;;;;;0.50;0.37;;;;;;;;;;5071623;28;20356;-56
2023/11/15 03:21:09;;;;;;;0.27;0.20;;;;;;;;;;5051603;28;20098;-57
2023/11/15 03:23:38;;;;;;;0.20;0.20;;;;;;;;;;5051733;28;20483;-57
2023/11/15 03:26:05;;;;;;;0.10;0.10;;;;;;;;;;5051496;28;20037;-56
2023/11/15 03:28:31;;;;;;;0.67;0.30;;;;;;;;;;5048789;28;20024;-56
2023/11/15 03:30:58;;;;;;;0.40;0.30;;;;;;;;;;5058725;28;20060;-57
2023/11/15 03:33:24;;;;;;;0.10;0.10;;;;;;;;;;5066683;28;20099;-57
2023/11/15 03:35:51;;;;;;;1.83;0.40;;;;;;;;;;5066324;28;20486;-57
2023/11/15 03:38:18;;;;;;;0.90;0.20;;;;;;;;;;5068436;28;20035;-57
2023/11/15 03:40:44;;;;;;;0.10;0.10;;;;;;;;;;5071593;28;20721;-56
2023/11/15 03:43:11;;;;;;;0.10;0.10;;;;;;;;;;5071610;28;20503;-56
2023/11/15 03:45:38;;;;;;;0.63;0.27;;;;;;;;;;5071380;28;20427;-57
2023/11/15 03:48:04;;;;;;;0.20;0.17;;;;;;;;;;5071341;28;20110;-56
2023/11/15 03:50:31;;;;;;;1.30;0.37;;;;;;;;;;5068944;28;20129;-56
2023/11/15 03:53:00;;;;;;;0.20;0.20;;;;;;;;;;5064194;28;20114;-57
2023/11/15 03:55:26;;;;;;;1.60;0.30;;;;;;;;;;5066718;28;20059;-57
2023/11/15 03:57:53;;;;;;;0.17;0.17;;;;;;;;;;5068800;28;20032;-56
2023/11/15 04:00:19;;;;;;;0.10;0.10;;;;;;;;;;5070085;28;20036;-57
2023/11/15 04:02:46;;;;;;;0.10;0.10;;;;;;;;;;5073077;28;20131;-56
2023/11/15 04:05:15;;;;;;;0.03;0.03;;;;;;;;;;5073155;28;20149;-56
2023/11/15 04:07:42;;;;;;;0.30;0.13;;;;;;;;;;5073325;28;20111;-56
2023/11/15 04:10:09;;;;;;;0.20;0.20;;;;;;;;;;5074159;28;20027;-57
2023/11/15 04:12:37;;;;;;;0.20;0.10;;;;;;;;;;5073476;28;20032;-57
2023/11/15 04:15:04;;;;;;;0.23;0.20;;;;;;;;;;5069850;28;20056;-56
2023/11/15 04:17:31;;;;;;;0.63;0.20;;;;;;;;;;5058806;28;20040;-57
2023/11/15 04:19:58;;;;;;;0.17;0.10;;;;;;;;;;5050068;28;20033;-56
2023/11/15 04:22:24;;;;;;;0.10;0.10;;;;;;;;;;5050063;28;20476;-57
2023/11/15 04:24:52;;;;;;;0.00;0.00;;;;;;;;;;5054811;28;20023;-57
2023/11/15 04:27:19;;;;;;;0.10;0.10;;;;;;;;;;5054555;28;20040;-56
2023/11/15 04:29:46;;;;;;;0.10;0.10;;;;;;;;;;5059741;28;20031;-56
2023/11/15 04:32:12;;;;;;;0.20;0.20;;;;;;;;;;5059792;28;20040;-58
2023/11/15 04:34:40;;;;;;;0.20;0.20;;;;;;;;;;5073242;28;20111;-56
2023/11/15 04:37:06;;;;;;;0.30;0.20;;;;;;;;;;5069226;28;20047;-56
2023/11/15 04:39:33;;;;;;;0.17;0.07;;;;;;;;;;5069507;28;20153;-57
2023/11/15 04:42:00;;;;;;;0.60;0.27;;;;;;;;;;5069281;28;20024;-57
2023/11/15 04:44:27;;;;;;;0.30;0.10;;;;;;;;;;5069229;28;20017;-57
2023/11/15 04:46:54;;;;;;;0.23;0.17;;;;;;;;;;5074059;28;20029;-56
2023/11/15 04:49:21;;;;;;;3.63;0.40;;;;;;;;;;5074025;28;20391;-56
2023/11/15 04:51:48;;;;;;;0.43;0.30;;;;;;;;;;5073997;28;20036;-56
2023/11/15 04:54:14;;;;;;;0.07;0.07;;;;;;;;;;5074356;28;20020;-56
2023/11/15 04:56:41;;;;;;;0.80;0.40;;;;;;;;;;5074406;28;20021;-56
2023/11/15 04:59:07;;;;;;;1.80;0.20;;;;;;;;;;5069307;28;20027;-56
2023/11/15 05:01:34;;;;;;;0.03;0.03;;;;;;;;;;5068564;28;20027;-57
2023/11/15 05:04:01;;;;;;;0.47;0.20;;;;;;;;;;5068849;28;20036;-56
2023/11/15 05:06:27;;;;;;;0.40;0.27;;;;;;;;;;5068164;28;20426;-56
2023/11/15 05:08:54;;;;;;;0.53;0.20;;;;;;;;;;5072991;28;20367;-56
2023/11/15 05:11:21;;;;;;;0.30;0.30;;;;;;;;;;5073854;28;20462;-56
2023/11/15 05:13:48;;;;;;;0.27;0.20;;;;;;;;;;5058956;28;20372;-56
2023/11/15 05:16:15;;;;;;;0.00;0.00;;;;;;;;;;5073882;28;20024;-56
2023/11/15 05:18:41;;;;;;;0.17;0.10;;;;;;;;;;5073809;28;20036;-56
2023/11/15 05:21:08;;;;;;;0.10;0.10;;;;;;;;;;5069885;28;20074;-56
2023/11/15 05:23:35;;;;;;;1.97;0.30;;;;;;;;;;5068542;28;20036;-56
2023/11/15 05:26:02;;;;;;;0.10;0.00;;;;;;;;;;5068158;28;20056;-56
2023/11/15 05:28:28;;;;;;;0.10;0.10;;;;;;;;;;5068283;28;20107;-57
2023/11/15 05:30:55;;;;;;;0.20;0.10;;;;;;;;;;5071552;28;20552;-56
2023/11/15 05:33:22;;;;;;;0.00;0.00;;;;;;;;;;5073570;28;20028;-57
2023/11/15 05:35:48;;;;;;;0.30;0.20;;;;;;;;;;5073509;28;20025;-56
2023/11/15 05:38:15;;;;;;;2.23;0.40;;;;;;;;;;5073514;28;20056;-56
2023/11/15 05:40:43;;;;;;;0.00;0.00;;;;;;;;;;5072770;28;20055;-56
2023/11/15 05:43:10;;;;;;;0.00;0.00;;;;;;;;;;5062822;28;20044;-57
2023/11/15 05:45:36;;;;;;;0.10;0.03;;;;;;;;;;5067805;28;20029;-56
2023/11/15 05:48:03;;;;;;;0.10;0.10;;;;;;;;;;5067991;28;20127;-56
2023/11/15 05:50:30;;;;;;;0.40;0.30;;;;;;;;;;5068291;28;20085;-56
2023/11/15 05:52:56;;;;;;;0.00;0.00;;;;;;;;;;5069814;28;20104;-56
2023/11/15 05:55:23;;;;;;;0.23;0.07;;;;;;;;;;5073115;28;20462;-56
2023/11/15 05:57:50;;;;;;;0.17;0.10;;;;;;;;;;5072218;28;20506;-56
2023/11/15 06:00:21;;;;;;;0.30;0.30;;;;;;;;;;5072739;28;20439;-57
2023/11/15 06:02:47;;;;;;;0.00;0.00;;;;;;;;;;5072398;28;20111;-56
2023/11/15 06:05:14;;;;;;;0.00;0.00;;;;;;;;;;5070024;28;20132;-56
2023/11/15 06:07:41;;;;;;;0.23;0.20;;;;;;;;;;5066359;28;20570;-56
2023/11/15 06:10:08;;;;;;;0.23;0.10;;;;;;;;;;5066400;28;20064;-56
2023/11/15 06:12:35;;;;;;;0.10;0.10;;;;;;;;;;5065977;28;20024;-57
2023/11/15 06:15:03;;;;;;;0.30;0.20;;;;;;;;;;5067468;28;20033;-56
2023/11/15 06:17:30;;;;;;;0.13;0.03;;;;;;;;;;5069890;28;20074;-56
2023/11/15 06:19:57;;;;;;;0.33;0.10;;;;;;;;;;5070874;28;20390;-56
2023/11/15 06:22:24;;;;;;;0.10;0.10;;;;;;;;;;5070610;28;20472;-56
2023/11/15 06:24:52;;;;;;;0.33;0.20;;;;;;;;;;5072109;28;20352;-56
2023/11/15 06:27:19;;;;;;;0.60;0.30;;;;;;;;;;5070411;28;20040;-56
2023/11/15 06:29:50;;;;;;;0.27;0.10;;;;;;;;;;5067202;28;20052;-56
2023/11/15 06:32:17;;;;;;;0.30;0.20;;;;;;;;;;5067520;28;20028;-56
2023/11/15 06:34:44;;;;;;;0.10;0.10;;;;;;;;;;5067397;28;20032;-57
2023/11/15 06:37:12;;;;;;;0.00;0.00;;;;;;;;;;5068008;28;20029;-56
2023/11/15 06:39:42;;;;;;;0.00;0.00;;;;;;;;;;5071906;28;20053;-56
2023/11/15 06:42:13;;;;;;;2.83;0.37;;;;;;;;;;5072085;28;20028;-56
2023/11/15 06:44:40;;;;;;;0.00;0.00;;;;;;;;;;5071885;28;20039;-56
2023/11/15 06:47:08;;;;;;;0.07;0.07;;;;;;;;;;5072112;28;20020;-56
2023/11/15 06:49:38;;;;;;;0.10;0.10;;;;;;;;;;5070440;28;20380;-56
2023/11/15 06:52:05;;;;;;;0.10;0.10;;;;;;;;;;5060637;28;20037;-56
2023/11/15 06:54:32;;;;;;;0.10;0.10;;;;;;;;;;5047072;28;20124;-57
2023/11/15 06:56:59;;;;;;;0.73;0.30;;;;;;;;;;5047228;28;20683;-56
2023/11/15 06:59:26;;;;;;;0.23;0.17;;;;;;;;;;5063939;28;20024;-56
2023/11/15 07:01:53;;;;;;;0.60;0.20;;;;;;;;;;5071483;28;20062;-56
2023/11/15 07:04:21;;;;;;;0.20;0.10;;;;;;;;;;5072033;28;20040;-56
2023/11/15 07:06:48;;;;;;;0.13;0.10;;;;;;;;;;5071753;28;20047;-57
2023/11/15 07:09:19;;;;;;;0.10;0.10;;;;;;;;;;5071794;28;20100;-56
2023/11/15 07:11:46;;;;;;;0.10;0.10;;;;;;;;;;5071261;28;20033;-56
2023/11/15 07:14:17;;;;;;;0.20;0.20;;;;;;;;;;5067124;28;20190;-56
2023/11/15 07:16:47;;;;;;;0.20;0.20;;;;;;;;;;5066817;28;20364;-57
2023/11/15 07:19:14;;;;;;;0.40;0.20;;;;;;;;;;5066806;28;20032;-56
2023/11/15 07:21:42;;;;;;;0.20;0.20;;;;;;;;;;5064152;28;20544;-56
2023/11/15 07:24:12;;;;;;;0.37;0.23;;;;;;;;;;5051172;28;20044;-57
2023/11/15 07:26:39;;;;;;;0.10;0.07;;;;;;;;;;5051592;28;20221;-56
2023/11/15 07:29:11;;;;;;;0.70;0.40;;;;;;;;;;5048864;28;20114;-56
2023/11/15 07:31:40;;;;;;;0.30;0.30;;;;;;;;;;5051829;28;20104;-56
2023/11/15 07:34:08;;;;;;;0.20;0.13;;;;;;;;;;5052385;28;20104;-56
2023/11/15 07:36:35;;;;;;;0.23;0.20;;;;;;;;;;5056121;28;20028;-56
2023/11/15 07:39:04;;;;;;;0.40;0.10;;;;;;;;;;5047913;28;20086;-57
2023/11/15 07:41:31;;;;;;;0.63;0.40;;;;;;;;;;5048342;28;20067;-56
2023/11/15 07:43:58;;;;;;;0.30;0.23;;;;;;;;;;5048248;28;20044;-56
2023/11/15 07:46:25;;;;;;;0.10;0.10;;;;;;;;;;5068336;28;20036;-57
2023/11/15 07:48:52;;;;;;;1.13;0.47;;;;;;;;;;5072784;28;20033;-56
2023/11/15 07:51:19;;;;;;;0.30;0.20;;;;;;;;;;5073804;28;20067;-56
2023/11/15 07:53:48;;;;;;;0.10;0.10;;;;;;;;;;5074079;28;20024;-57
2023/11/15 07:56:18;;;;;;;1.10;0.30;;;;;;;;;;5073711;28;20093;-56
2023/11/15 07:58:49;;;;;;;1.30;0.23;;;;;;;;;;5069036;28;20024;-56
2023/11/15 08:01:16;;;;;;;1.10;0.43;;;;;;;;;;5069072;28;20472;-56
2023/11/15 08:03:43;;;;;;;0.10;0.10;;;;;;;;;;5068648;28;20033;-57
2023/11/15 08:06:10;;;;;;;0.17;0.17;;;;;;;;;;5068742;28;20100;-58
2023/11/15 08:08:40;;;;;;;0.20;0.10;;;;;;;;;;5073205;28;20375;-56
2023/11/15 08:11:07;;;;;;;0.10;0.10;;;;;;;;;;5073534;28;20077;-56
2023/11/15 08:13:34;;;;;;;0.00;0.00;;;;;;;;;;5073881;28;20024;-56
2023/11/15 08:16:01;;;;;;;0.33;0.33;;;;;;;;;;5074018;28;20036;-56
2023/11/15 08:18:27;;;;;;;0.67;0.40;;;;;;;;;;5073910;28;20371;-56
2023/11/15 08:20:56;;;;;;;0.37;0.30;;;;;;;;;;5069050;28;20032;-56
2023/11/15 08:23:23;;;;;;;0.77;0.27;;;;;;;;;;5068248;28;20048;-56
2023/11/15 08:25:51;;;;;;;0.03;0.03;;;;;;;;;;5068634;28;20052;-56
2023/11/15 08:28:21;;;;;;;0.73;0.30;;;;;;;;;;5068046;28;20278;-58
2023/11/15 08:30:48;;;;;;;0.57;0.37;;;;;;;;;;5072374;28;20025;-56
2023/11/15 08:33:16;;;;;;;0.47;0.37;;;;;;;;;;5074167;28;20062;-56
2023/11/15 08:35:44;;;;;;;0.53;0.30;;;;;;;;;;5073942;28;20135;-56
2023/11/15 08:38:12;;;;;;;0.93;0.70;;;;;;;;;;5073745;28;20028;-56
2023/11/15 08:40:39;;;;;;;0.97;0.40;;;;;;;;;;5073052;28;20041;-56
2023/11/15 08:43:08;;;;;;;0.10;0.10;;;;;;;;;;5069797;28;20502;-56
2023/11/15 08:45:34;;;;;;;0.50;0.40;;;;;;;;;;5068676;28;20108;-57
2023/11/15 08:48:04;;;;;;;17.00;0.57;;;;;;;;;;5068761;28;20107;-56
2023/11/15 08:50:31;;;;;;;2.80;0.37;;;;;;;;;;5068522;28;20068;-56
2023/11/15 08:52:58;;;;;;;1.07;0.30;;;;;;;;;;5072154;28;20028;-55
2023/11/15 08:55:25;;;;;;;0.20;0.10;;;;;;;;;;5073833;28;20039;-56
2023/11/15 08:57:52;;;;;;;0.10;0.10;;;;;;;;;;5073665;28;20029;-56
2023/11/15 09:00:18;;;;;;;0.83;0.33;;;;;;;;;;5072840;28;20479;-56
2023/11/15 09:02:47;;;;;;;2.67;0.57;;;;;;;;;;5072897;28;20037;-56
2023/11/15 09:05:15;;;;;;;0.47;0.40;;;;;;;;;;5069578;28;20094;-56
2023/11/15 09:07:43;;;;;;;0.73;0.27;;;;;;;;;;5068271;28;20032;-56
2023/11/15 09:10:13;;;;;;;0.30;0.30;;;;;;;;;;5068352;28;20028;-56
2023/11/15 09:12:41;;;;;;;0.20;0.10;;;;;;;;;;5068389;28;20118;-56
2023/11/15 09:15:14;;;;;;;0.90;0.30;;;;;;;;;;5070904;28;20482;-56
2023/11/15 09:17:46;;;;;;;0.30;0.27;;;;;;;;;;5073367;28;20024;-56
2023/11/15 09:20:26;;;;;;;0.33;0.20;;;;;;;;;;5072780;28;20031;-56
2023/11/15 09:22:57;;;;;;;0.40;0.10;;;;;;;;;;5072956;28;20090;-56
2023/11/15 09:25:30;;;;;;;0.27;0.17;;;;;;;;;;5073853;28;20051;-56
2023/11/15 09:27:59;;;;;;;0.60;0.20;;;;;;;;;;5069224;28;20383;-56
2023/11/15 09:30:26;;;;;;;0.27;0.23;;;;;;;;;;5068412;28;20051;-56
2023/11/15 09:32:52;;;;;;;0.40;0.30;;;;;;;;;;5068274;28;20391;-56
2023/11/15 09:35:28;;;;;;;1.80;0.40;;;;;;;;;;5068322;28;20032;-56
2023/11/15 09:37:54;;;;;;;;;;;;;;;;;;5072319;28;20044;-56
2023/11/15 09:40:21;;;;;;;0.00;0.00;;;;;;;;;;5073453;28;19919;-56
2023/11/15 09:42:51;;;;;;;0.63;0.20;;;;;;;;;;5073191;28;20039;-56
2023/11/15 09:45:19;;;;;;;10.30;0.53;;;;;;;;;;5073400;28;20045;-56
2023/11/15 09:47:47;;;;;;;0.33;0.13;;;;;;;;;;5073492;28;20091;-56
2023/11/15 09:50:17;;;;;;;0.00;0.00;;;;;;;;;;5069039;28;20044;-56
2023/11/15 09:52:47;;;;;;;3.83;0.67;;;;;;;;;;5066862;28;20048;-56
2023/11/15 09:55:14;;;;;;;0.10;0.10;;;;;;;;;;5067937;28;20033;-56
2023/11/15 09:57:40;;;;;;;0.57;0.40;;;;;;;;;;5067609;28;20078;-56
2023/11/15 10:00:09;;;;;;;0.00;0.00;;;;;;;;;;5071391;28;20021;-56
2023/11/15 10:02:37;;;;;;;0.13;0.10;;;;;;;;;;5072983;28;20106;-56
2023/11/15 10:05:14;;;;;;;0.20;0.20;;;;;;;;;;5072950;28;20028;-56
2023/11/15 10:07:42;;;;;;;0.33;0.20;;;;;;;;;;5072702;28;20063;-56
2023/11/15 10:10:21;;;;;;;2.20;0.57;;;;;;;;;;5072750;28;20410;-56
2023/11/15 10:12:53;;;;;;;0.53;0.30;;;;;;;;;;5068276;28;20029;-56
2023/11/15 10:15:39;;;;;;;0.43;0.10;;;;;;;;;;5067576;28;20093;-56
2023/11/15 10:18:11;;;;;;;0.20;0.20;;;;;;;;;;5067538;28;20043;-56
2023/11/15 10:20:38;;;;;;;0.27;0.17;;;;;;;;;;5067079;28;20115;-55
2023/11/15 10:23:06;;;;;;;0.40;0.20;;;;;;;;;;5072032;28;20046;-56
2023/11/15 10:25:47;;;;;;;0.47;0.30;;;;;;;;;;5072537;28;20032;-56
2023/11/15 10:28:15;;;;;;;0.00;0.00;;;;;;;;;;5072399;28;20028;-56
2023/11/15 10:30:42;;;;;;;0.00;0.00;;;;;;;;;;5072288;28;20093;-56
2023/11/15 10:33:18;;;;;;;0.70;0.30;;;;;;;;;;5071809;28;20047;-56
2023/11/15 10:35:44;;;;;;;0.10;0.10;;;;;;;;;;5067076;28;20052;-56
2023/11/15 10:38:23;;;;;;;0.03;0.03;;;;;;;;;;5067257;28;20017;-56
2023/11/15 10:40:52;;;;;;;0.30;0.20;;;;;;;;;;5067224;28;20120;-56
2023/11/15 10:43:19;;;;;;;0.13;0.13;;;;;;;;;;5067042;28;20133;-56
2023/11/15 10:45:46;;;;;;;0.57;0.33;;;;;;;;;;5071693;28;20554;-56
2023/11/15 10:48:21;;;;;;;0.10;0.10;;;;;;;;;;5072542;28;20029;-56
2023/11/15 10:50:50;;;;;;;0.28;0.20;;;;;;;;;;5071882;28;20454;-56
2023/11/15 10:53:17;;;;;;;0.07;0.07;;;;;;;;;;5072212;28;20064;-56
2023/11/15 10:55:45;;;;;;;0.10;0.10;;;;;;;;;;5071355;28;20103;-56
2023/11/15 10:58:14;;;;;;;0.20;0.20;;;;;;;;;;5066971;28;20063;-56
2023/11/15 11:00:43;;;;;;;0.20;0.17;;;;;;;;;;5067032;28;20016;-56
2023/11/15 11:03:11;;;;;;;0.50;0.23;;;;;;;;;;5066679;28;20527;-56
2023/11/15 11:05:52;;;;;;;0.47;0.33;;;;;;;;;;5066458;28;20113;-56
2023/11/15 11:08:28;;;;;;;1.17;0.33;;;;;;;;;;5072008;28;20238;-56
2023/11/15 11:11:05;;;;;;;0.20;0.10;;;;;;;;;;5071463;28;20375;-56
2023/11/15 11:13:33;;;;;;;0.17;0.13;;;;;;;;;;5071966;28;20060;-56
2023/11/15 11:16:18;;;;;;;0.10;0.10;;;;;;;;;;5072069;28;20060;-56
2023/11/15 11:18:53;;;;;;;0.30;0.25;;;;;;;;;;5069873;28;20021;-56
2023/11/15 11:21:22;;;;;;;0.00;0.00;;;;;;;;;;5066658;28;20026;-56
2023/11/15 11:24:08;;;;;;;0.20;0.20;;;;;;;;;;5066322;28;20036;-56
2023/11/15 11:26:35;;;;;;;0.70;0.33;;;;;;;;;;5066730;28;20036;-56
2023/11/15 11:29:04;;;;;;;1.23;0.23;;;;;;;;;;5069085;28;20039;-56
2023/11/15 11:31:31;;;;;;;0.00;0.00;;;;;;;;;;5071593;28;20021;-56
2023/11/15 11:34:18;;;;;;;0.20;0.17;;;;;;;;;;5071895;28;20025;-56
2023/11/15 11:36:58;;;;;;;0.57;0.30;;;;;;;;;;5071584;28;20099;-56
2023/11/15 11:39:43;;;;;;;0.53;0.30;;;;;;;;;;5071191;28;20028;-56
2023/11/15 11:42:31;;;;;;;0.25;0.15;;;;;;;;;;5067164;28;20020;-56
2023/11/15 11:44:58;;;;;;;0.93;0.50;;;;;;;;;;5066448;28;20056;-55
2023/11/15 11:47:24;;;;;;;0.40;0.20;;;;;;;;;;5066028;28;20058;-56
2023/11/15 11:49:53;;;;;;;0.10;0.10;;;;;;;;;;5066023;28;20028;-56
2023/11/15 11:52:20;;;;;;;0.20;0.20;;;;;;;;;;5070802;28;20064;-56
2023/11/15 11:54:53;;;;;;;0.27;0.27;;;;;;;;;;5071704;28;20111;-56
2023/11/15 11:57:21;;;;;;;1.07;0.63;;;;;;;;;;5071603;28;20490;-56
2023/11/15 12:00:00;;;;;;;0.27;0.20;;;;;;;;;;5071556;28;20029;-56
2023/11/15 12:02:36;;;;;;;0.10;0.10;;;;;;;;;;5071399;28;20040;-56
2023/11/15 12:05:03;;;;;;;0.57;0.43;;;;;;;;;;5065695;28;20027;-56
2023/11/15 12:07:30;;;;;;;1.10;0.70;;;;;;;;;;5066332;28;20112;-56
2023/11/15 12:10:06;;;;;;;3.10;0.47;;;;;;;;;;5066333;28;20540;-56
2023/11/15 12:12:33;;;;;;;0.33;0.30;;;;;;;;;;5065967;28;20108;-56
2023/11/15 12:14:59;;;;;;;0.63;0.57;;;;;;;;;;5071280;28;20096;-56
2023/11/15 12:17:42;;;;;;;1.33;0.63;;;;;;;;;;5074245;28;20024;-56
2023/11/15 12:20:41;;;;;;;0.30;0.30;;;;;;;;;;5074997;28;20021;-56
2023/11/15 12:23:08;;;;;;;0.30;0.20;;;;;;;;;;5074917;28;20036;-56
2023/11/15 12:25:48;;;;;;;1.07;0.73;;;;;;;;;;5073218;28;20029;-56
2023/11/15 12:28:21;;;;;;;0.97;0.47;;;;;;;;;;5051588;28;20036;-56
2023/11/15 12:30:48;;;;;;;5.63;1.03;;;;;;;;;;5069306;28;20095;-56
2023/11/15 12:33:15;;;;;;;0.70;0.53;;;;;;;;;;5069386;28;20095;-56
2023/11/15 12:35:43;;;;;;;1.83;1.20;;;;;;;;;;5071031;28;20359;-56
2023/11/15 12:38:14;;;;;;;1.80;0.87;;;;;;;;;;5074750;28;20052;-56
2023/11/15 12:40:42;;;;;;;2.37;0.70;;;;;;;;;;5074713;28;20452;-56
2023/11/15 12:43:18;;;;;;;7.63;1.13;;;;;;;;;;5074643;28;20426;-56
2023/11/15 12:45:44;;;;;;;1.07;0.70;;;;;;;;;;5073904;28;20047;-56
2023/11/15 12:48:11;;;;;;;0.97;0.80;;;;;;;;;;5072153;28;20467;-56
2023/11/15 12:50:39;;;;;;;0.70;0.70;;;;;;;;;;5069131;28;20025;-56
2023/11/15 12:53:17;;;;;;;2.13;0.80;;;;;;;;;;5069330;28;20052;-56
2023/11/15 12:55:46;;;;;;;0.80;0.70;;;;;;;;;;5069118;28;20422;-56
2023/11/15 12:58:14;;;;;;;1.57;0.97;;;;;;;;;;5070864;28;20502;-56
2023/11/15 13:00:57;;;;;;;0.60;0.50;;;;;;;;;;5074125;28;20490;-56
2023/11/15 13:03:28;;;;;;;0.60;0.43;;;;;;;;;;5073987;28;20451;-56
2023/11/15 13:05:57;;;;;;;2.70;0.90;;;;;;;;;;5073930;28;20024;-55
2023/11/15 13:08:24;;;;;;;3.63;1.13;;;;;;;;;;5074231;28;20037;-56
2023/11/15 13:10:50;;;;;;;0.83;0.50;;;;;;;;;;5071225;28;20498;-56
2023/11/15 13:13:17;;;;;;;3.30;0.60;;;;;;;;;;5068889;28;20055;-56
2023/11/15 13:15:44;;;;;;;2.40;0.73;;;;;;;;;;5068771;28;20029;-56
2023/11/15 13:18:11;;;;;;;0.47;0.30;;;;;;;;;;5068897;28;20027;-56
2023/11/15 13:20:38;;;;;;;1.80;0.67;;;;;;;;;;5070114;28;20028;-56
2023/11/15 13:23:05;;;;;;;2.43;0.53;;;;;;;;;;5074040;28;20047;-55
2023/11/15 13:25:34;;;;;;;1.07;0.57;;;;;;;;;;5073606;28;20352;-56
2023/11/15 13:28:03;;;;;;;1.70;0.67;;;;;;;;;;5072573;28;20028;-56
2023/11/15 13:30:30;;;;;;;12.43;0.97;;;;;;;;;;5072880;28;20482;-57
2023/11/15 13:32:58;;;;;;;1.87;0.43;;;;;;;;;;5070585;28;20071;-56
2023/11/15 13:35:26;;;;;;;2.23;0.80;;;;;;;;;;5068104;28;20013;-56
2023/11/15 13:37:56;;;;;;;1.60;1.10;;;;;;;;;;5067308;28;20041;-56
2023/11/15 13:40:24;;;;;;;0.90;0.57;;;;;;;;;;5067667;28;20025;-56
2023/11/15 13:42:51;;;;;;;0.47;0.40;;;;;;;;;;5069457;28;20033;-56
2023/11/15 13:45:18;;;;;;;0.27;0.20;;;;;;;;;;5073472;28;20020;-56
2023/11/15 13:47:50;;;;;;;0.80;0.40;;;;;;;;;;5073230;28;20059;-57
2023/11/15 13:50:17;;;;;;;0.93;0.50;;;;;;;;;;5073165;28;20032;-56
2023/11/15 13:52:43;;;;;;;0.50;0.27;;;;;;;;;;5073234;28;20074;-56
2023/11/15 13:55:10;;;;;;;1.10;0.47;;;;;;;;;;5071174;28;20024;-57
2023/11/15 13:57:38;;;;;;;0.50;0.30;;;;;;;;;;5067825;28;20024;-57
2023/11/15 14:00:13;;;;;;;0.30;0.23;;;;;;;;;;5067770;28;20033;-57
2023/11/15 14:02:41;;;;;;;0.23;0.20;;;;;;;;;;5067885;28;20048;-56
2023/11/15 14:05:17;;;;;;;0.87;0.40;;;;;;;;;;5068977;28;20070;-56
2023/11/15 14:07:44;;;;;;;1.87;0.70;;;;;;;;;;5072977;28;20027;-56
2023/11/15 14:10:12;;;;;;;0.77;0.47;;;;;;;;;;5072828;28;20025;-57
2023/11/15 14:12:39;;;;;;;0.00;0.00;;;;;;;;;;5072864;28;20052;-56
2023/11/15 14:15:10;;;;;;;0.33;0.23;;;;;;;;;;5072566;28;20577;-56
2023/11/15 14:17:39;;;;;;;0.73;0.47;;;;;;;;;;5070559;28;20060;-57
2023/11/15 14:20:06;;;;;;;0.20;0.10;;;;;;;;;;5067040;28;20125;-57
2023/11/15 14:22:36;;;;;;;0.30;0.17;;;;;;;;;;5067242;28;20032;-57
2023/11/15 14:25:07;;;;;;;1.17;0.60;;;;;;;;;;5067419;28;20083;-57
2023/11/15 14:27:37;;;;;;;1.13;0.33;;;;;;;;;;5068763;28;20036;-56
2023/11/15 14:30:05;;;;;;;0.00;0.00;;;;;;;;;;5072508;28;20115;-57
2023/11/15 14:32:32;;;;;;;0.50;0.30;;;;;;;;;;5072238;28;20017;-56
2023/11/15 14:34:59;;;;;;;0.33;0.17;;;;;;;;;;5072351;28;20432;-57
2023/11/15 14:37:28;;;;;;;0.37;0.20;;;;;;;;;;5072188;28;20068;-56
2023/11/15 14:39:54;;;;;;;0.40;0.30;;;;;;;;;;5067720;28;20054;-56
2023/11/15 14:42:21;;;;;;;0.57;0.50;;;;;;;;;;5065503;28;20038;-57
2023/11/15 14:44:47;;;;;;;0.50;0.30;;;;;;;;;;5065493;28;20023;-56
2023/11/15 14:47:15;;;;;;;1.20;0.47;;;;;;;;;;5065625;28;20028;-57
2023/11/15 14:49:42;;;;;;;0.43;0.23;;;;;;;;;;5066340;28;20029;-57
2023/11/15 14:52:12;;;;;;;0.17;0.10;;;;;;;;;;5070493;28;20479;-56